Time;durP1;ratioP1;P1;durP2;ratioP2;P2;SDS_P1;SDS_P2;PMS_P1;PMS_P2;Temp;Humidity;BMP_temperature;BMP_pressure;BME280_temperature;BME280_humidity;BME280_pressure;Samples;Min_cycle;Max_cycle;Signal;HPM_P1;HPM_P2
2023/10/01 00:00:20;;;;;;;5.57;2.42;;;15.30;99.90;;;;;;5001504;28;20090;-74
2023/10/01 00:02:49;;;;;;;3.47;1.90;;;15.30;99.90;;;;;;5001773;28;20047;-75
2023/10/01 00:05:15;;;;;;;4.05;2.10;;;15.30;99.90;;;;;;5002694;28;20046;-75
2023/10/01 00:07:42;;;;;;;10.05;2.22;;;15.30;99.90;;;;;;4997904;28;20044;-75
2023/10/01 00:10:10;;;;;;;11.07;2.38;;;15.30;99.90;;;;;;5001787;28;20080;-74
2023/10/01 00:12:44;;;;;;;6.00;2.47;;;15.30;99.90;;;;;;5001429;28;20038;-74
2023/10/01 00:15:12;;;;;;;7.57;3.40;;;15.30;99.90;;;;;;5001410;28;20138;-75
2023/10/01 00:17:44;;;;;;;3.30;2.13;;;15.30;99.90;;;;;;5001323;28;20679;-75
2023/10/01 00:20:20;;;;;;;5.20;2.40;;;15.30;99.90;;;;;;5002967;28;20544;-75
2023/10/01 00:22:48;;;;;;;5.40;2.20;;;15.30;99.90;;;;;;4985666;28;20062;-74
2023/10/01 00:25:15;;;;;;;3.42;1.98;;;15.40;99.90;;;;;;5002690;28;20041;-75
2023/10/01 00:27:40;;;;;;;9.00;3.22;;;15.30;99.90;;;;;;5000424;28;20046;-75
2023/10/01 00:30:09;;;;;;;4.70;2.30;;;15.40;99.90;;;;;;5003066;28;20606;-74
2023/10/01 00:32:38;;;;;;;5.18;2.40;;;15.30;99.90;;;;;;5000903;28;20136;-74
2023/10/01 00:35:06;;;;;;;4.65;2.30;;;15.30;99.90;;;;;;5002835;28;20485;-74
2023/10/01 00:37:33;;;;;;;6.63;2.60;;;15.30;99.90;;;;;;5002376;28;20048;-74
2023/10/01 00:39:59;;;;;;;8.70;3.25;;;15.40;99.90;;;;;;5001865;28;20046;-75
2023/10/01 00:42:29;;;;;;;8.57;3.45;;;15.30;99.90;;;;;;4984754;28;20065;-74
2023/10/01 00:44:57;;;;;;;6.35;2.80;;;15.30;99.90;;;;;;5002728;28;20033;-74
2023/10/01 00:47:25;;;;;;;7.57;2.70;;;15.30;99.90;;;;;;5000950;28;20515;-74
2023/10/01 00:49:52;;;;;;;9.52;4.20;;;15.30;99.90;;;;;;5002797;28;20042;-74
2023/10/01 00:52:19;;;;;;;6.30;2.38;;;15.30;99.90;;;;;;5001932;28;20072;-74
2023/10/01 00:54:48;;;;;;;8.07;2.78;;;15.30;99.90;;;;;;4984279;28;20045;-75
2023/10/01 00:57:17;;;;;;;3.95;2.75;;;15.30;99.90;;;;;;5000847;28;20046;-74
2023/10/01 00:59:46;;;;;;;11.55;2.75;;;15.30;99.90;;;;;;5001086;28;20050;-74
2023/10/01 01:02:15;;;;;;;6.18;2.22;;;15.30;99.90;;;;;;4999358;28;20555;-75
2023/10/01 01:04:45;;;;;;;5.93;2.50;;;15.30;99.90;;;;;;5002372;28;20034;-75
2023/10/01 01:07:16;;;;;;;8.05;2.70;;;15.30;99.90;;;;;;5099405;22;20053;-75
2023/10/01 01:09:49;;;;;;;9.85;2.90;;;15.30;99.90;;;;;;5027569;28;20052;-75
2023/10/01 01:12:15;;;;;;;11.98;3.00;;;15.30;99.90;;;;;;5022129;28;20678;-75
2023/10/01 01:14:44;;;;;;;9.85;2.83;;;15.30;99.90;;;;;;5021523;28;20118;-75
2023/10/01 01:17:13;;;;;;;5.25;2.80;;;15.20;99.90;;;;;;5020621;28;20045;-76
2023/10/01 01:19:41;;;;;;;11.32;3.72;;;15.20;99.90;;;;;;5004118;28;20049;-76
2023/10/01 01:22:09;;;;;;;5.70;2.45;;;15.20;99.90;;;;;;5020539;28;20061;-75
2023/10/01 01:24:36;;;;;;;11.23;2.83;;;15.20;99.90;;;;;;5018270;28;20044;-75
2023/10/01 01:27:06;;;;;;;14.02;3.53;;;15.20;99.90;;;;;;5025896;28;20096;-75
2023/10/01 01:29:40;;;;;;;12.38;3.13;;;15.20;99.90;;;;;;5034359;28;20491;-75
2023/10/01 01:32:13;;;;;;;9.00;3.42;;;15.20;99.90;;;;;;5042256;28;20045;-75
2023/10/01 01:34:43;;;;;;;5.38;2.40;;;15.20;99.90;;;;;;5024543;28;20056;-76
2023/10/01 01:37:19;;;;;;;5.85;3.33;;;15.20;99.90;;;;;;5023975;28;20487;-76
2023/10/01 01:39:51;;;;;;;6.43;2.92;;;15.20;99.90;;;;;;5025681;28;20188;-75
2023/10/01 01:42:21;;;;;;;6.75;2.88;;;15.20;99.90;;;;;;5036325;28;20111;-75
2023/10/01 01:45:15;;;;;;;6.53;3.17;;;15.20;99.90;;;;;;5025878;28;20049;-75
2023/10/01 01:47:39;;;;;;;6.75;2.70;;;15.20;99.90;;;;;;5040460;28;20041;-76
2023/10/01 01:53:04;;;;;;;7.78;2.92;;;15.20;99.90;;;;;;5026866;28;20053;-75
2023/10/01 01:55:34;;;;;;;8.18;3.05;;;15.20;99.90;;;;;;5039305;28;20044;-75
2023/10/01 01:58:08;;;;;;;5.63;3.42;;;15.20;99.90;;;;;;5032460;28;20045;-75
2023/10/01 02:00:46;;;;;;;9.75;3.50;;;15.20;99.90;;;;;;5023691;28;20086;-75
2023/10/01 02:03:14;;;;;;;6.00;3.50;;;15.20;99.90;;;;;;5023461;28;20068;-75
2023/10/01 02:05:41;;;;;;;5.40;3.88;;;15.20;99.90;;;;;;5023676;28;20056;-76
2023/10/01 02:08:34;;;;;;;6.55;3.55;;;15.20;99.90;;;;;;5042599;28;20041;-75
2023/10/01 02:11:09;;;;;;;10.32;4.07;;;15.20;99.90;;;;;;5043812;28;20100;-75
2023/10/01 02:13:41;;;;;;;4.78;2.72;;;15.20;99.90;;;;;;5037795;28;20041;-74
2023/10/01 02:16:19;;;;;;;;;;;15.10;99.90;;;;;;5006492;28;20045;-75
2023/10/01 02:18:56;;;;;;;5.40;3.42;;;15.10;99.90;;;;;;5024179;28;20011;-75
2023/10/01 02:21:47;;;;;;;9.93;3.50;;;15.10;99.90;;;;;;5023033;28;20458;-75
2023/10/01 02:24:19;;;;;;;10.40;5.22;;;15.10;99.90;;;;;;5023227;28;20046;-75
2023/10/01 02:26:48;;;;;;;9.48;5.72;;;15.20;99.90;;;;;;5023432;28;20124;-75
2023/10/01 02:29:16;;;;;;;10.43;5.43;;;15.10;99.90;;;;;;5023044;28;20440;-75
2023/10/01 02:31:54;;;;;;;7.97;5.10;;;15.10;99.90;;;;;;5023648;28;20041;-75
2023/10/01 02:34:21;;;;;;;8.13;4.80;;;15.10;99.90;;;;;;5023008;28;20123;-75
2023/10/01 02:36:47;;;;;;;8.60;5.45;;;15.10;99.90;;;;;;5022973;28;20541;-75
2023/10/01 02:44:39;;;;;;;9.07;4.53;;;15.10;99.90;;;;;;5022960;28;20532;-75
2023/10/01 02:47:16;;;;;;;8.82;4.47;;;15.10;99.90;;;;;;5022230;28;20057;-75
2023/10/01 02:49:52;;;;;;;7.85;4.78;;;15.00;99.90;;;;;;5006482;28;20052;-75
2023/10/01 02:52:36;;;;;;;11.13;5.93;;;15.10;99.90;;;;;;5022981;28;20059;-74
2023/10/01 02:55:16;;;;;;;7.78;5.53;;;15.00;99.90;;;;;;5023896;28;20141;-75
2023/10/01 02:57:42;;;;;;;13.68;5.45;;;15.00;99.90;;;;;;5023235;28;20154;-76
2023/10/01 03:02:42;;;;;;;14.18;5.95;;;15.10;99.90;;;;;;5025321;28;20522;-75
2023/10/01 03:05:18;;;;;;;10.38;6.68;;;15.10;99.90;;;;;;5031854;28;20080;-75
2023/10/01 03:07:50;;;;;;;15.23;7.18;;;15.00;99.90;;;;;;5028029;28;20053;-75
2023/10/01 03:10:24;;;;;;;;;;;15.10;99.90;;;;;;5034127;28;20179;-75
2023/10/01 03:12:55;;;;;;;8.88;5.40;;;15.10;99.90;;;;;;5029754;28;19992;-75
2023/10/01 03:15:29;;;;;;;15.77;6.57;;;15.00;99.90;;;;;;5041106;28;20071;-75
2023/10/01 03:17:57;;;;;;;12.68;6.15;;;15.10;99.90;;;;;;5032704;28;20067;-75
2023/10/01 03:23:25;;;;;;;;;;;15.10;99.90;;;;;;5023697;28;20061;-75
2023/10/01 03:26:08;;;;;;;14.38;5.90;;;15.10;99.90;;;;;;5023594;28;19924;-75
2023/10/01 03:31:23;;;;;;;20.42;5.85;;;15.10;99.90;;;;;;5020933;28;20060;-75
2023/10/01 03:33:53;;;;;;;7.45;5.28;;;15.10;99.90;;;;;;5022619;28;20050;-75
2023/10/01 03:36:25;;;;;;;10.35;5.68;;;15.10;99.90;;;;;;5021388;28;20060;-75
2023/10/01 03:38:57;;;;;;;11.70;5.10;;;15.10;99.90;;;;;;5022383;28;20106;-75
2023/10/01 03:41:24;;;;;;;12.48;5.95;;;15.10;99.90;;;;;;5023378;28;20046;-75
2023/10/01 03:43:54;;;;;;;12.00;5.97;;;15.10;99.90;;;;;;5021932;28;20033;-75
2023/10/01 03:46:26;;;;;;;14.00;6.40;;;15.10;99.90;;;;;;5020889;28;20117;-75
2023/10/01 03:51:52;;;;;;;10.30;5.93;;;15.10;99.90;;;;;;5022309;28;20107;-75
2023/10/01 03:54:52;;;;;;;13.63;6.45;;;15.10;99.90;;;;;;5021394;28;20084;-75
2023/10/01 03:57:17;;;;;;;11.00;5.65;;;15.10;99.90;;;;;;5021711;28;20407;-74
2023/10/01 03:59:52;;;;;;;11.52;6.47;;;15.10;99.90;;;;;;5021390;28;20552;-75
2023/10/01 04:02:28;;;;;;;12.25;5.90;;;15.10;99.90;;;;;;5004194;28;20040;-75
2023/10/01 04:05:21;;;;;;;9.52;5.35;;;15.10;99.90;;;;;;5023045;28;20041;-75
2023/10/01 04:07:46;;;;;;;9.63;5.80;;;15.10;99.90;;;;;;5033001;28;20079;-75
2023/10/01 04:10:14;;;;;;;10.15;5.10;;;15.10;99.90;;;;;;5035748;28;20050;-75
2023/10/01 04:12:58;;;;;;;15.48;6.43;;;15.10;99.90;;;;;;5022444;28;20045;-76
2023/10/01 04:15:27;;;;;;;10.75;6.20;;;15.10;99.90;;;;;;5035255;28;20057;-75
2023/10/01 04:20:47;;;;;;;10.98;5.68;;;15.10;99.90;;;;;;5027349;28;20110;-74
2023/10/01 04:23:29;;;;;;;10.38;5.35;;;15.10;99.90;;;;;;5028067;28;20048;-75
2023/10/01 04:26:06;;;;;;;15.43;6.10;;;15.10;99.90;;;;;;5022095;28;20148;-75
2023/10/01 04:28:36;;;;;;;10.25;5.85;;;15.10;99.90;;;;;;5035873;28;20501;-75
2023/10/01 04:31:08;;;;;;;10.98;6.85;;;15.10;99.90;;;;;;5038111;28;20037;-75
2023/10/01 04:33:34;;;;;;;;;;;15.10;99.90;;;;;;5038073;28;20108;-75
2023/10/01 04:36:01;;;;;;;10.68;6.00;;;15.10;99.90;;;;;;5024743;28;19936;-75
2023/10/01 04:38:29;;;;;;;9.95;5.75;;;15.10;99.90;;;;;;5042135;28;20133;-76
2023/10/01 04:40:57;;;;;;;11.02;4.93;;;15.10;99.90;;;;;;5035412;28;20040;-75
2023/10/01 04:43:26;;;;;;;10.05;4.88;;;15.20;99.90;;;;;;5022722;28;20067;-75
2023/10/01 04:45:52;;;;;;;9.35;4.82;;;15.10;99.90;;;;;;5039428;28;20045;-75
2023/10/01 04:48:22;;;;;;;10.10;4.57;;;15.20;99.90;;;;;;5040541;28;20137;-74
2023/10/01 04:50:50;;;;;;;10.13;4.65;;;15.10;99.90;;;;;;5041003;28;20037;-75
2023/10/01 04:53:20;;;;;;;9.40;3.95;;;15.10;99.90;;;;;;5040442;28;20132;-75
2023/10/01 04:55:57;;;;;;;11.38;4.70;;;15.20;99.90;;;;;;5040447;28;20049;-75
2023/10/01 04:58:23;;;;;;;9.15;4.03;;;15.10;99.90;;;;;;5040977;28;20275;-77
2023/10/01 05:00:49;;;;;;;9.95;5.35;;;15.20;99.90;;;;;;5012569;28;20037;-76
2023/10/01 05:03:15;;;;;;;11.27;4.07;;;15.20;99.90;;;;;;5024759;28;20136;-77
2023/10/01 05:05:45;;;;;;;6.45;4.07;;;15.20;99.90;;;;;;5024571;28;20087;-76
2023/10/01 05:08:14;;;;;;;10.48;4.30;;;15.20;99.90;;;;;;5041732;28;20041;-76
2023/10/01 05:10:52;;;;;;;8.65;3.97;;;15.10;99.90;;;;;;5045677;28;20133;-77
2023/10/01 05:13:24;;;;;;;8.95;4.25;;;15.10;99.90;;;;;;5045171;28;20083;-77
2023/10/01 05:15:55;;;;;;;7.32;4.57;;;15.10;99.90;;;;;;5044974;28;20048;-76
2023/10/01 05:18:22;;;;;;;11.20;4.68;;;15.10;99.90;;;;;;5045539;28;20051;-77
2023/10/01 05:20:48;;;;;;;12.23;4.30;;;15.10;99.90;;;;;;5045335;28;20080;-77
2023/10/01 05:23:15;;;;;;;7.10;4.22;;;15.10;99.90;;;;;;5044318;28;20080;-77
2023/10/01 05:25:45;;;;;;;10.02;4.63;;;15.10;99.90;;;;;;5044498;28;20041;-77
2023/10/01 05:28:23;;;;;;;10.63;4.70;;;15.10;99.90;;;;;;5043896;28;20585;-77
2023/10/01 05:30:58;;;;;;;8.45;3.75;;;15.10;99.90;;;;;;5043924;28;20106;-76
2023/10/01 05:33:24;;;;;;;8.85;4.30;;;15.10;99.90;;;;;;5044111;28;20047;-77
2023/10/01 05:35:54;;;;;;;16.85;4.32;;;15.10;99.90;;;;;;5044738;28;20029;-76
2023/10/01 05:38:21;;;;;;;9.13;4.95;;;15.10;99.90;;;;;;5044305;28;20116;-76
2023/10/01 05:40:52;;;;;;;11.45;4.47;;;15.10;99.90;;;;;;5043769;28;20051;-76
2023/10/01 05:43:18;;;;;;;10.27;5.17;;;15.10;99.90;;;;;;5045014;28;20049;-76
2023/10/01 05:45:52;;;;;;;11.52;4.05;;;15.10;99.90;;;;;;5042740;28;20041;-77
2023/10/01 05:48:23;;;;;;;14.80;4.65;;;15.10;99.90;;;;;;5043574;28;20130;-77
2023/10/01 05:50:49;;;;;;;10.27;4.43;;;15.10;99.90;;;;;;5043628;28;20045;-76
2023/10/01 05:53:17;;;;;;;9.23;5.68;;;15.10;99.90;;;;;;5037607;28;20079;-77
2023/10/01 05:55:43;;;;;;;11.85;4.63;;;15.00;99.90;;;;;;5040441;28;20048;-77
2023/10/01 05:58:13;;;;;;;10.07;4.63;;;15.10;99.90;;;;;;5023305;28;20045;-77
2023/10/01 06:00:57;;;;;;;12.95;5.05;;;15.10;99.90;;;;;;5022937;28;20049;-77
2023/10/01 06:03:25;;;;;;;10.40;4.47;;;15.10;99.90;;;;;;5024413;28;20049;-76
2023/10/01 06:05:58;;;;;;;8.43;4.97;;;15.10;99.90;;;;;;5023583;28;20130;-76
2023/10/01 06:08:25;;;;;;;8.32;4.15;;;15.10;99.90;;;;;;5042653;28;20060;-76
2023/10/01 06:11:13;;;;;;;8.80;4.35;;;15.10;99.90;;;;;;5043900;28;20711;-77
2023/10/01 06:13:51;;;;;;;10.57;4.65;;;15.10;99.90;;;;;;5027280;28;20076;-76
2023/10/01 06:16:23;;;;;;;7.78;4.47;;;15.10;99.90;;;;;;5025628;28;20090;-76
2023/10/01 06:18:51;;;;;;;11.50;3.90;;;15.10;99.90;;;;;;5043511;28;20101;-76
2023/10/01 06:21:23;;;;;;;11.30;5.07;;;15.10;99.90;;;;;;5043492;28;20045;-77
2023/10/01 06:23:51;;;;;;;10.55;4.93;;;15.00;99.90;;;;;;5026787;28;20091;-76
2023/10/01 06:26:29;;;;;;;9.68;4.75;;;15.10;99.90;;;;;;5026761;28;20097;-76
2023/10/01 06:28:56;;;;;;;6.65;3.83;;;15.10;99.90;;;;;;5044238;28;20094;-76
2023/10/01 06:31:23;;;;;;;9.13;3.72;;;15.10;99.90;;;;;;5042004;28;20049;-77
2023/10/01 06:33:53;;;;;;;11.20;4.90;;;15.10;99.90;;;;;;5043517;28;20673;-76
2023/10/01 06:36:21;;;;;;;8.05;4.15;;;15.10;99.90;;;;;;5044113;28;20052;-77
2023/10/01 06:38:53;;;;;;;9.32;4.07;;;15.10;99.90;;;;;;5045107;28;20447;-76
2023/10/01 06:41:25;;;;;;;13.32;4.35;;;15.10;99.90;;;;;;5042526;28;20048;-77
2023/10/01 06:43:55;;;;;;;13.13;4.40;;;15.10;99.90;;;;;;5043043;28;20514;-77
2023/10/01 06:46:27;;;;;;;10.90;3.97;;;15.20;99.90;;;;;;5042157;28;20045;-77
2023/10/01 06:48:56;;;;;;;11.25;4.32;;;15.20;99.90;;;;;;5042631;28;20077;-77
2023/10/01 06:51:24;;;;;;;12.40;4.63;;;15.20;99.90;;;;;;5042543;28;20084;-78
2023/10/01 06:54:10;;;;;;;10.95;5.82;;;15.20;99.90;;;;;;5026012;28;20102;-77
2023/10/01 06:56:38;;;;;;;9.43;4.20;;;15.20;99.90;;;;;;5026665;28;20065;-77
2023/10/01 07:01:34;;;;;;;15.32;4.50;;;15.20;99.90;;;;;;5041929;28;20060;-78
2023/10/01 07:04:05;;;;;;;8.60;4.45;;;15.20;99.90;;;;;;5042093;28;20094;-77
2023/10/01 07:06:31;;;;;;;10.73;3.90;;;15.30;99.90;;;;;;5037646;28;20110;-77
2023/10/01 07:08:59;;;;;;;9.75;4.50;;;15.30;99.90;;;;;;5022590;28;20057;-77
2023/10/01 07:11:28;;;;;;;9.60;4.63;;;15.30;99.90;;;;;;5021865;28;20049;-76
2023/10/01 07:13:55;;;;;;;7.20;3.97;;;15.30;99.90;;;;;;5022600;28;20049;-77
2023/10/01 07:16:35;;;;;;;8.98;3.92;;;15.30;99.90;;;;;;5026392;28;20057;-76
2023/10/01 07:19:04;;;;;;;11.57;4.20;;;15.30;99.90;;;;;;5022226;28;20047;-76
2023/10/01 07:21:33;;;;;;;10.77;4.22;;;15.40;99.90;;;;;;5022722;28;20045;-77
2023/10/01 07:24:00;;;;;;;11.55;3.97;;;15.40;99.90;;;;;;5040828;28;20063;-78
2023/10/01 07:26:26;;;;;;;9.93;3.83;;;15.40;99.90;;;;;;5040580;28;20045;-77
2023/10/01 07:28:56;;;;;;;8.07;3.80;;;15.40;99.90;;;;;;5023577;28;20060;-79
2023/10/01 07:31:24;;;;;;;11.35;4.13;;;15.50;99.90;;;;;;5028364;28;20511;-78
2023/10/01 07:33:54;;;;;;;16.83;4.10;;;15.50;99.90;;;;;;5029524;28;20680;-78
2023/10/01 07:36:23;;;;;;;9.85;4.22;;;15.50;99.90;;;;;;5022743;28;20045;-77
2023/10/01 07:38:52;;;;;;;9.55;3.35;;;15.50;99.90;;;;;;5028324;28;20414;-80
2023/10/01 07:41:20;;;;;;;14.60;4.43;;;15.50;99.90;;;;;;5025100;28;20123;-79
2023/10/01 07:43:46;;;;;;;11.23;3.90;;;15.50;99.90;;;;;;5030556;28;20038;-78
2023/10/01 07:46:14;;;;;;;11.50;3.90;;;15.50;99.90;;;;;;5012351;28;20084;-78
2023/10/01 07:48:46;;;;;;;11.85;4.75;;;15.50;99.90;;;;;;5020815;28;20040;-79
2023/10/01 07:51:30;;;;;;;10.07;4.38;;;15.50;99.90;;;;;;5023807;28;20116;-78
2023/10/01 07:54:02;;;;;;;12.02;3.92;;;15.60;99.90;;;;;;5021852;28;20045;-82
2023/10/01 07:56:28;;;;;;;8.43;4.30;;;15.60;99.90;;;;;;5030125;28;20064;-77
2023/10/01 07:59:17;;;;;;;12.95;4.85;;;15.60;99.90;;;;;;5031484;28;20048;-80
2023/10/01 08:01:43;;;;;;;13.68;4.63;;;15.60;99.90;;;;;;5037965;28;20045;-78
2023/10/01 08:07:05;;;;;;;12.77;4.75;;;15.60;99.90;;;;;;5029011;28;20083;-78
2023/10/01 08:09:39;;;;;;;12.75;4.20;;;15.70;99.90;;;;;;5033225;28;20045;-80
2023/10/01 08:12:05;;;;;;;18.88;5.60;;;15.70;99.90;;;;;;5020566;28;20041;-80
2023/10/01 08:14:34;;;;;;;9.98;3.63;;;15.80;99.90;;;;;;5036524;28;20073;-79
2023/10/01 08:17:01;;;;;;;14.63;4.82;;;15.80;99.90;;;;;;5030131;28;20056;-78
2023/10/01 08:19:44;;;;;;;9.73;4.38;;;15.90;99.90;;;;;;5017677;28;20041;-79
2023/10/01 08:22:13;;;;;;;13.70;4.32;;;16.00;99.90;;;;;;5034459;28;20045;-77
2023/10/01 08:24:45;;;;;;;13.75;4.25;;;16.00;99.90;;;;;;5037081;28;20051;-81
2023/10/01 08:27:31;;;;;;;9.73;3.80;;;16.10;99.90;;;;;;5040327;28;20049;-78
2023/10/01 08:30:18;;;;;;;13.13;4.40;;;16.10;99.90;;;;;;5041512;28;20144;-79
2023/10/01 08:32:49;;;;;;;12.38;5.68;;;16.20;99.90;;;;;;5041400;28;20131;-80
2023/10/01 08:35:34;;;;;;;8.88;4.10;;;16.30;99.90;;;;;;5029770;28;20077;-80
2023/10/01 08:38:00;;;;;;;12.27;5.40;;;16.40;99.90;;;;;;5021479;28;20092;-80
2023/10/01 08:40:29;;;;;;;11.98;4.00;;;16.50;99.90;;;;;;5004603;28;20091;-77
2023/10/01 08:42:58;;;;;;;12.27;4.35;;;16.60;99.90;;;;;;5004260;28;20053;-81
2023/10/01 08:45:37;;;;;;;13.98;3.80;;;16.60;99.90;;;;;;5009609;28;20040;-81
2023/10/01 08:48:17;;;;;;;8.88;3.97;;;16.70;99.90;;;;;;5033372;28;20742;-80
2023/10/01 08:50:45;;;;;;;6.60;4.18;;;16.70;99.90;;;;;;5023178;28;20045;-80
2023/10/01 08:53:12;;;;;;;13.55;5.03;;;16.80;99.90;;;;;;5039703;28;20044;-80
2023/10/01 08:55:43;;;;;;;9.27;3.72;;;16.80;99.90;;;;;;5040687;28;20195;-80
2023/10/01 08:58:25;;;;;;;9.98;4.82;;;16.90;99.90;;;;;;5039257;28;20040;-81
2023/10/01 09:00:53;;;;;;;12.48;4.53;;;16.90;99.90;;;;;;5040080;28;20045;-79
2023/10/01 09:03:28;;;;;;;13.07;4.32;;;17.00;99.90;;;;;;5041675;28;20061;-80
2023/10/01 09:06:03;;;;;;;13.20;5.68;;;17.00;99.90;;;;;;5039723;28;20053;-80
2023/10/01 09:08:42;;;;;;;11.98;4.50;;;17.00;99.90;;;;;;5020135;28;20053;-80
2023/10/01 09:11:13;;;;;;;13.30;4.30;;;17.10;99.90;;;;;;5039122;28;20045;-80
2023/10/01 09:14:14;;;;;;;12.13;4.00;;;17.10;99.90;;;;;;5039607;28;20029;-80
2023/10/01 09:16:44;;;;;;;13.27;3.85;;;17.10;99.90;;;;;;5038831;28;20123;-80
2023/10/01 09:19:30;;;;;;;14.77;5.38;;;17.20;99.90;;;;;;5040251;28;20484;-80
2023/10/01 09:22:16;;;;;;;10.48;5.20;;;17.20;99.90;;;;;;5023232;28;20041;-80
2023/10/01 09:24:43;;;;;;;14.07;5.00;;;17.20;99.90;;;;;;5035196;28;20044;-80
2023/10/01 09:27:18;;;;;;;11.32;4.10;;;17.30;99.90;;;;;;5023205;28;20037;-81
2023/10/01 09:29:57;;;;;;;16.83;5.18;;;17.30;99.90;;;;;;5022456;28;20134;-80
2023/10/01 09:32:54;;;;;;;14.40;5.05;;;17.30;99.90;;;;;;5040084;28;20072;-80
2023/10/01 09:35:39;;;;;;;13.30;4.22;;;17.40;99.90;;;;;;5037826;28;20045;-80
2023/10/01 09:38:12;;;;;;;9.95;4.60;;;17.40;99.90;;;;;;5023416;28;20084;-77
2023/10/01 09:40:42;;;;;;;14.00;4.88;;;17.40;99.90;;;;;;5015307;28;20029;-76
2023/10/01 09:43:19;;;;;;;10.35;4.03;;;17.40;99.90;;;;;;5034420;28;20051;-76
2023/10/01 09:45:49;;;;;;;9.73;4.57;;;17.40;99.90;;;;;;5038098;28;20102;-75
2023/10/01 09:48:29;;;;;;;18.98;4.75;;;17.40;99.90;;;;;;5032966;28;20049;-76
2023/10/01 09:51:22;;;;;;;10.07;3.50;;;17.50;99.90;;;;;;5051380;28;20131;-75
2023/10/01 09:53:54;;;;;;;11.05;4.25;;;17.40;99.90;;;;;;5047095;28;20091;-75
2023/10/01 09:56:29;;;;;;;12.30;4.45;;;17.50;99.90;;;;;;5035172;28;20561;-76
2023/10/01 09:59:08;;;;;;;8.90;4.32;;;17.50;99.90;;;;;;5035498;28;20061;-75
2023/10/01 10:01:35;;;;;;;10.90;3.63;;;17.50;99.90;;;;;;5031153;28;20111;-76
2023/10/01 10:04:07;;;;;;;14.82;5.00;;;17.60;99.90;;;;;;5027810;28;20061;-76
2023/10/01 10:06:33;;;;;;;11.80;5.00;;;17.60;99.90;;;;;;5026573;28;20138;-78
2023/10/01 10:09:03;;;;;;;13.18;4.53;;;17.70;99.90;;;;;;5042976;28;20057;-76
2023/10/01 10:11:36;;;;;;;11.40;4.07;;;17.70;99.90;;;;;;5041514;28;20495;-78
2023/10/01 10:14:24;;;;;;;10.25;4.40;;;17.70;99.90;;;;;;5021519;28;20121;-80
2023/10/01 10:16:57;;;;;;;14.38;4.03;;;17.80;99.90;;;;;;5041742;28;20134;-79
2023/10/01 10:19:23;;;;;;;12.15;4.47;;;17.70;99.90;;;;;;5041220;28;20076;-86
2023/10/01 10:24:30;;;;;;;12.45;4.13;;;17.70;99.90;;;;;;5040909;28;20049;-79
2023/10/01 10:27:03;;;;;;;17.25;5.18;;;17.80;99.90;;;;;;5047625;28;20084;-78
2023/10/01 10:29:49;;;;;;;14.43;4.97;;;17.70;99.90;;;;;;5039562;28;20089;-78
2023/10/01 10:32:24;;;;;;;9.18;4.32;;;17.80;99.90;;;;;;5023872;28;20076;-76
2023/10/01 10:35:04;;;;;;;10.18;4.43;;;17.80;99.90;;;;;;5005472;28;20037;-75
2023/10/01 10:37:36;;;;;;;15.43;5.60;;;17.80;99.90;;;;;;5020710;28;20038;-76
2023/10/01 10:40:12;;;;;;;17.77;5.70;;;17.80;99.90;;;;;;5013090;28;20124;-75
2023/10/01 10:43:02;;;;;;;11.93;6.13;;;17.90;99.90;;;;;;5007569;28;20064;-76
2023/10/01 10:45:45;;;;;;;13.57;4.55;;;17.90;99.90;;;;;;5013310;28;20080;-79
2023/10/01 10:48:11;;;;;;;;;;;17.90;99.90;;;;;;5041499;28;20053;-76
2023/10/01 10:50:50;;;;;;;9.90;3.72;;;18.00;99.90;;;;;;5024663;28;19925;-75
2023/10/01 10:53:39;;;;;;;13.48;4.43;;;18.00;99.90;;;;;;5034311;28;20128;-76
2023/10/01 10:56:10;;;;;;;15.27;4.80;;;18.10;99.90;;;;;;5023239;28;20056;-76
2023/10/01 10:58:40;;;;;;;15.20;4.80;;;18.20;99.90;;;;;;5003912;28;20034;-75
2023/10/01 11:01:16;;;;;;;14.02;4.70;;;18.20;99.90;;;;;;5007555;28;20067;-76
2023/10/01 11:03:57;;;;;;;11.98;4.90;;;18.20;99.90;;;;;;5020328;28;20049;-75
2023/10/01 11:07:01;;;;;;;12.70;5.13;;;18.20;99.90;;;;;;5026413;28;20065;-77
2023/10/01 11:09:23;;;;;;;14.20;4.60;;;18.20;99.90;;;;;;5028097;28;20059;-75
2023/10/01 11:11:50;;;;;;;12.43;4.15;;;18.30;99.90;;;;;;5039761;28;20044;-77
2023/10/01 11:14:16;;;;;;;14.63;4.72;;;18.30;99.90;;;;;;5031843;28;20073;-76
2023/10/01 11:16:44;;;;;;;11.98;4.82;;;18.30;99.90;;;;;;5023126;28;20061;-76
2023/10/01 11:19:14;;;;;;;11.85;4.40;;;18.30;99.90;;;;;;5020384;28;20431;-75
2023/10/01 11:21:55;;;;;;;12.75;4.25;;;18.40;99.90;;;;;;5037136;28;20053;-75
2023/10/01 11:24:29;;;;;;;12.60;4.13;;;18.40;99.90;;;;;;5025147;28;20538;-75
2023/10/01 11:27:18;;;;;;;18.65;5.13;;;18.40;99.90;;;;;;5032204;28;20041;-78
2023/10/01 11:35:43;;;;;;;9.63;4.60;;;18.60;99.90;;;;;;5024899;28;20049;-75
2023/10/01 11:38:14;;;;;;;13.05;5.25;;;18.60;99.90;;;;;;5028467;28;20052;-75
2023/10/01 11:43:42;;;;;;;12.10;4.03;;;18.70;99.90;;;;;;5039213;28;20063;-75
2023/10/01 11:46:24;;;;;;;11.30;4.70;;;18.70;99.90;;;;;;5038965;28;20182;-74
2023/10/01 11:49:06;;;;;;;14.20;4.78;;;18.70;99.90;;;;;;5040268;28;20367;-76
2023/10/01 11:51:40;;;;;;;17.67;4.22;;;18.70;99.90;;;;;;5022786;28;20077;-75
2023/10/01 11:54:09;;;;;;;9.93;4.65;;;18.70;99.90;;;;;;5023201;28;20049;-74
2023/10/01 11:56:40;;;;;;;16.73;4.85;;;18.70;99.90;;;;;;5040496;28;20106;-76
2023/10/01 11:59:11;;;;;;;11.45;4.88;;;18.70;99.90;;;;;;5040296;28;20445;-75
2023/10/01 12:01:49;;;;;;;13.82;5.43;;;18.70;99.90;;;;;;5037772;28;20068;-80
2023/10/01 12:07:15;;;;;;;13.40;4.18;;;18.80;99.90;;;;;;5022858;28;20057;-79
2023/10/01 12:09:48;;;;;;;15.07;6.22;;;18.80;99.90;;;;;;5038781;28;20122;-78
2023/10/01 12:12:25;;;;;;;15.23;6.15;;;18.90;99.90;;;;;;5003812;28;20124;-76
2023/10/01 12:14:55;;;;;;;9.98;5.03;;;18.90;99.90;;;;;;5030208;28;20415;-76
2023/10/01 12:17:28;;;;;;;9.55;4.82;;;18.90;99.90;;;;;;5033183;28;20403;-76
2023/10/01 12:19:54;;;;;;;11.63;4.82;;;19.00;99.90;;;;;;5023477;28;20037;-77
2023/10/01 12:22:26;;;;;;;11.70;4.68;;;19.00;99.90;;;;;;5028861;28;20077;-78
2023/10/01 12:24:58;;;;;;;16.45;5.18;;;18.90;99.90;;;;;;5006878;28;20095;-76
2023/10/01 12:27:41;;;;;;;11.40;5.25;;;18.90;99.90;;;;;;5033580;28;20044;-77
2023/10/01 12:30:27;;;;;;;13.00;5.35;;;19.00;99.90;;;;;;5021314;28;20045;-77
2023/10/01 12:33:02;;;;;;;12.60;5.65;;;18.90;99.90;;;;;;5017345;28;20033;-77
2023/10/01 12:35:31;;;;;;;11.23;4.68;;;19.00;99.90;;;;;;5027536;28;20590;-77
2023/10/01 12:40:49;;;;;;;8.50;4.82;;;18.90;99.90;;;;;;5029823;28;20527;-77
2023/10/01 12:45:59;;;;;;;13.18;5.13;;;19.10;99.90;;;;;;5031046;28;20110;-77
2023/10/01 12:48:25;;;;;;;10.13;4.88;;;19.10;99.90;;;;;;5032120;28;20044;-77
2023/10/01 12:51:08;;;;;;;12.75;5.70;;;19.20;99.90;;;;;;5025389;28;20082;-77
2023/10/01 12:53:47;;;;;;;7.90;4.43;;;19.30;99.90;;;;;;5033911;28;20072;-79
2023/10/01 12:56:13;;;;;;;11.07;4.45;;;19.30;99.90;;;;;;5020468;28;20064;-78
2023/10/01 12:58:39;;;;;;;13.80;4.38;;;19.40;99.90;;;;;;5033206;28;20033;-78
2023/10/01 13:01:23;;;;;;;15.52;5.00;;;19.50;99.90;;;;;;5021394;28;20076;-77
2023/10/01 13:03:52;;;;;;;13.00;4.45;;;19.50;99.90;;;;;;5027218;28;20531;-78
2023/10/01 13:06:17;;;;;;;8.15;4.13;;;19.50;99.90;;;;;;5028875;28;20081;-76
2023/10/01 13:08:44;;;;;;;11.57;4.22;;;19.60;99.90;;;;;;5032014;28;20463;-78
2023/10/01 13:13:54;;;;;;;8.80;3.65;;;19.70;99.90;;;;;;5026543;28;20656;-78
2023/10/01 13:16:20;;;;;;;12.60;4.35;;;19.70;99.90;;;;;;5007187;28;20045;-79
2023/10/01 13:18:46;;;;;;;8.90;3.83;;;19.70;99.90;;;;;;5024345;28;20038;-78
2023/10/01 13:21:12;;;;;;;12.63;4.95;;;19.70;99.90;;;;;;5032588;28;20067;-79
2023/10/01 13:23:44;;;;;;;17.73;4.68;;;19.70;99.90;;;;;;5038181;28;20146;-78
2023/10/01 13:26:24;;;;;;;11.75;4.55;;;19.70;99.90;;;;;;5028684;28;20045;-79
2023/10/01 13:28:51;;;;;;;14.63;5.22;;;19.70;99.90;;;;;;5025266;28;20091;-78
2023/10/01 13:34:06;;;;;;;10.85;4.13;;;19.70;99.90;;;;;;5035847;28;20044;-77
2023/10/01 13:36:47;;;;;;;14.60;4.90;;;19.70;99.90;;;;;;5032482;28;20580;-76
2023/10/01 13:40:10;;;;;;;12.32;4.53;;;19.70;99.90;;;;;;5029753;28;20084;-77
2023/10/01 14:09:52;;;;;;;10.18;4.75;;;19.70;99.90;;;;;;5027681;28;20262;-78
2023/10/01 14:12:41;;;;;;;10.02;3.95;;;19.70;99.90;;;;;;5027831;28;20054;-77
2023/10/01 14:15:21;;;;;;;15.77;4.72;;;19.70;99.90;;;;;;5033749;28;20045;-77
2023/10/01 14:17:58;;;;;;;11.38;4.88;;;19.70;99.90;;;;;;5024866;28;20048;-76
2023/10/01 14:23:07;;;;;;;13.65;4.78;;;19.80;99.90;;;;;;5040604;28;20045;-76
2023/10/01 14:28:21;;;;;;;12.00;4.85;;;19.80;99.90;;;;;;5031378;28;20052;-77
2023/10/01 14:31:02;;;;;;;14.20;4.53;;;19.80;99.90;;;;;;5008195;28;20365;-77
2023/10/01 14:33:29;;;;;;;10.77;5.13;;;19.80;99.90;;;;;;5039995;28;20053;-76
2023/10/01 14:36:03;;;;;;;10.80;5.13;;;19.80;99.90;;;;;;5025062;28;20248;-77